sensor_id;sensor_type;location;lat;lon;timestamp;P1;durP1;ratioP1;P2;durP2;ratioP2
71665;SDS011;59503;53.486;10.196;2022-12-18T00:00:57;37.17;;;13.35;;
71665;SDS011;59503;53.486;10.196;2022-12-18T00:03:23;34.57;;;13.90;;
71665;SDS011;59503;53.486;10.196;2022-12-18T00:05:49;36.77;;;12.80;;
71665;SDS011;59503;53.486;10.196;2022-12-18T00:08:15;30.77;;;12.25;;
71665;SDS011;59503;53.486;10.196;2022-12-18T00:10:42;32.20;;;12.50;;
71665;SDS011;59503;53.486;10.196;2022-12-18T00:13:08;32.00;;;12.87;;
71665;SDS011;59503;53.486;10.196;2022-12-18T00:15:34;29.45;;;11.90;;
71665;SDS011;59503;53.486;10.196;2022-12-18T00:18:00;31.35;;;12.65;;
71665;SDS011;59503;53.486;10.196;2022-12-18T00:20:26;27.43;;;11.90;;
71665;SDS011;59503;53.486;10.196;2022-12-18T00:22:52;32.40;;;12.37;;
71665;SDS011;59503;53.486;10.196;2022-12-18T00:25:18;31.92;;;11.95;;
71665;SDS011;59503;53.486;10.196;2022-12-18T00:27:43;28.60;;;11.30;;
71665;SDS011;59503;53.486;10.196;2022-12-18T00:30:09;31.13;;;11.43;;
71665;SDS011;59503;53.486;10.196;2022-12-18T00:32:35;30.55;;;10.98;;
71665;SDS011;59503;53.486;10.196;2022-12-18T00:35:00;35.50;;;11.77;;
71665;SDS011;59503;53.486;10.196;2022-12-18T00:37:26;28.13;;;11.67;;
71665;SDS011;59503;53.486;10.196;2022-12-18T00:39:51;26.73;;;10.63;;
71665;SDS011;59503;53.486;10.196;2022-12-18T00:42:16;30.63;;;11.23;;
71665;SDS011;59503;53.486;10.196;2022-12-18T00:45:00;32.08;;;11.40;;
71665;SDS011;59503;53.486;10.196;2022-12-18T00:47:26;25.33;;;11.17;;
71665;SDS011;59503;53.486;10.196;2022-12-18T00:49:51;28.70;;;10.53;;
71665;SDS011;59503;53.486;10.196;2022-12-18T00:52:17;29.50;;;11.50;;
71665;SDS011;59503;53.486;10.196;2022-12-18T00:54:42;34.83;;;11.07;;
71665;SDS011;59503;53.486;10.196;2022-12-18T00:57:07;25.90;;;10.85;;
71665;SDS011;59503;53.486;10.196;2022-12-18T00:59:33;26.90;;;10.27;;
71665;SDS011;59503;53.486;10.196;2022-12-18T01:01:58;33.07;;;12.03;;
71665;SDS011;59503;53.486;10.196;2022-12-18T01:04:24;26.83;;;10.93;;
71665;SDS011;59503;53.486;10.196;2022-12-18T01:06:49;29.58;;;10.55;;
71665;SDS011;59503;53.486;10.196;2022-12-18T01:09:14;29.27;;;10.67;;
71665;SDS011;59503;53.486;10.196;2022-12-18T01:11:40;28.80;;;10.40;;
71665;SDS011;59503;53.486;10.196;2022-12-18T01:14:05;31.83;;;11.70;;
71665;SDS011;59503;53.486;10.196;2022-12-18T01:16:31;24.42;;;10.57;;
71665;SDS011;59503;53.486;10.196;2022-12-18T01:18:56;28.33;;;10.40;;
71665;SDS011;59503;53.486;10.196;2022-12-18T01:21:22;31.97;;;10.80;;
71665;SDS011;59503;53.486;10.196;2022-12-18T01:23:50;29.77;;;10.63;;
71665;SDS011;59503;53.486;10.196;2022-12-18T01:26:17;33.55;;;11.23;;
71665;SDS011;59503;53.486;10.196;2022-12-18T01:28:43;33.23;;;11.57;;
71665;SDS011;59503;53.486;10.196;2022-12-18T01:31:13;26.75;;;10.07;;
71665;SDS011;59503;53.486;10.196;2022-12-18T01:33:43;25.48;;;10.43;;
71665;SDS011;59503;53.486;10.196;2022-12-18T01:36:14;28.10;;;10.40;;
71665;SDS011;59503;53.486;10.196;2022-12-18T01:38:44;28.65;;;10.18;;
71665;SDS011;59503;53.486;10.196;2022-12-18T01:41:09;30.08;;;9.95;;
71665;SDS011;59503;53.486;10.196;2022-12-18T01:43:52;26.83;;;10.13;;
71665;SDS011;59503;53.486;10.196;2022-12-18T01:46:22;25.08;;;10.18;;
71665;SDS011;59503;53.486;10.196;2022-12-18T01:49:01;25.58;;;9.57;;
71665;SDS011;59503;53.486;10.196;2022-12-18T01:51:27;21.63;;;9.70;;
71665;SDS011;59503;53.486;10.196;2022-12-18T01:53:54;26.45;;;9.75;;
71665;SDS011;59503;53.486;10.196;2022-12-18T01:56:20;30.60;;;10.50;;
71665;SDS011;59503;53.486;10.196;2022-12-18T01:58:54;24.13;;;9.90;;
71665;SDS011;59503;53.486;10.196;2022-12-18T02:01:24;27.13;;;9.88;;
71665;SDS011;59503;53.486;10.196;2022-12-18T02:03:50;24.87;;;9.33;;
71665;SDS011;59503;53.486;10.196;2022-12-18T02:08:51;28.50;;;9.50;;
71665;SDS011;59503;53.486;10.196;2022-12-18T02:11:27;26.40;;;9.47;;
71665;SDS011;59503;53.486;10.196;2022-12-18T02:22:44;25.35;;;9.65;;
71665;SDS011;59503;53.486;10.196;2022-12-18T02:27:51;27.20;;;9.98;;
71665;SDS011;59503;53.486;10.196;2022-12-18T02:30:18;21.92;;;9.25;;
71665;SDS011;59503;53.486;10.196;2022-12-18T02:32:46;25.00;;;10.57;;
71665;SDS011;59503;53.486;10.196;2022-12-18T02:35:17;32.38;;;10.73;;
71665;SDS011;59503;53.486;10.196;2022-12-18T02:37:47;24.57;;;9.53;;
71665;SDS011;59503;53.486;10.196;2022-12-18T02:40:13;24.02;;;8.80;;
71665;SDS011;59503;53.486;10.196;2022-12-18T02:42:41;23.93;;;9.83;;
71665;SDS011;59503;53.486;10.196;2022-12-18T02:45:07;28.70;;;10.05;;
71665;SDS011;59503;53.486;10.196;2022-12-18T02:47:33;30.93;;;10.47;;
71665;SDS011;59503;53.486;10.196;2022-12-18T02:50:12;22.40;;;9.35;;
71665;SDS011;59503;53.486;10.196;2022-12-18T03:01:15;25.25;;;9.52;;
71665;SDS011;59503;53.486;10.196;2022-12-18T03:03:59;28.75;;;10.25;;
71665;SDS011;59503;53.486;10.196;2022-12-18T03:06:30;27.38;;;10.98;;
71665;SDS011;59503;53.486;10.196;2022-12-18T03:08:59;26.17;;;9.70;;
71665;SDS011;59503;53.486;10.196;2022-12-18T03:11:32;27.77;;;9.97;;
71665;SDS011;59503;53.486;10.196;2022-12-18T03:14:18;29.08;;;10.25;;
71665;SDS011;59503;53.486;10.196;2022-12-18T03:16:48;26.23;;;9.73;;
71665;SDS011;59503;53.486;10.196;2022-12-18T03:19:18;28.05;;;9.77;;
71665;SDS011;59503;53.486;10.196;2022-12-18T03:21:48;19.92;;;8.40;;
71665;SDS011;59503;53.486;10.196;2022-12-18T03:24:18;24.43;;;9.03;;
71665;SDS011;59503;53.486;10.196;2022-12-18T03:26:47;24.40;;;9.75;;
71665;SDS011;59503;53.486;10.196;2022-12-18T03:29:19;24.48;;;9.00;;
71665;SDS011;59503;53.486;10.196;2022-12-18T03:31:51;22.42;;;9.27;;
71665;SDS011;59503;53.486;10.196;2022-12-18T03:34:26;26.05;;;9.02;;
71665;SDS011;59503;53.486;10.196;2022-12-18T03:36:56;19.53;;;7.93;;
71665;SDS011;59503;53.486;10.196;2022-12-18T03:39:23;22.95;;;7.93;;
71665;SDS011;59503;53.486;10.196;2022-12-18T03:41:57;22.08;;;8.85;;
71665;SDS011;59503;53.486;10.196;2022-12-18T03:50:48;28.33;;;9.60;;
71665;SDS011;59503;53.486;10.196;2022-12-18T03:53:11;29.70;;;9.40;;
71665;SDS011;59503;53.486;10.196;2022-12-18T03:55:56;25.85;;;10.45;;
71665;SDS011;59503;53.486;10.196;2022-12-18T03:58:24;28.60;;;10.00;;
71665;SDS011;59503;53.486;10.196;2022-12-18T04:00:51;23.83;;;10.48;;
71665;SDS011;59503;53.486;10.196;2022-12-18T04:03:20;27.20;;;9.83;;
71665;SDS011;59503;53.486;10.196;2022-12-18T04:05:48;27.02;;;9.23;;
71665;SDS011;59503;53.486;10.196;2022-12-18T04:08:16;25.92;;;9.60;;
71665;SDS011;59503;53.486;10.196;2022-12-18T04:10:42;33.05;;;11.57;;
71665;SDS011;59503;53.486;10.196;2022-12-18T04:13:08;30.70;;;11.50;;
71665;SDS011;59503;53.486;10.196;2022-12-18T04:15:34;32.22;;;11.70;;
71665;SDS011;59503;53.486;10.196;2022-12-18T04:18:01;31.00;;;11.13;;
71665;SDS011;59503;53.486;10.196;2022-12-18T04:20:28;30.83;;;11.85;;
71665;SDS011;59503;53.486;10.196;2022-12-18T04:22:53;27.53;;;10.80;;
71665;SDS011;59503;53.486;10.196;2022-12-18T04:25:18;29.13;;;11.17;;
71665;SDS011;59503;53.486;10.196;2022-12-18T04:27:44;34.60;;;11.07;;
71665;SDS011;59503;53.486;10.196;2022-12-18T04:30:09;34.63;;;11.47;;
71665;SDS011;59503;53.486;10.196;2022-12-18T04:32:35;31.23;;;11.57;;
71665;SDS011;59503;53.486;10.196;2022-12-18T04:35:01;30.10;;;10.98;;
71665;SDS011;59503;53.486;10.196;2022-12-18T04:37:29;34.13;;;12.10;;
71665;SDS011;59503;53.486;10.196;2022-12-18T04:39:54;34.65;;;11.85;;
71665;SDS011;59503;53.486;10.196;2022-12-18T04:42:20;25.90;;;11.13;;
71665;SDS011;59503;53.486;10.196;2022-12-18T04:44:45;37.20;;;12.53;;
71665;SDS011;59503;53.486;10.196;2022-12-18T04:47:10;31.17;;;11.47;;
71665;SDS011;59503;53.486;10.196;2022-12-18T04:49:36;35.63;;;12.50;;
71665;SDS011;59503;53.486;10.196;2022-12-18T04:52:01;32.60;;;12.03;;
71665;SDS011;59503;53.486;10.196;2022-12-18T04:54:27;30.97;;;11.93;;
71665;SDS011;59503;53.486;10.196;2022-12-18T04:56:52;35.90;;;12.67;;
71665;SDS011;59503;53.486;10.196;2022-12-18T04:59:17;35.08;;;12.65;;
71665;SDS011;59503;53.486;10.196;2022-12-18T05:01:43;34.47;;;12.27;;
71665;SDS011;59503;53.486;10.196;2022-12-18T05:04:08;33.00;;;11.90;;
71665;SDS011;59503;53.486;10.196;2022-12-18T05:06:33;33.40;;;12.67;;
71665;SDS011;59503;53.486;10.196;2022-12-18T05:08:59;36.73;;;11.97;;
71665;SDS011;59503;53.486;10.196;2022-12-18T05:11:24;38.13;;;11.82;;
71665;SDS011;59503;53.486;10.196;2022-12-18T05:13:50;37.90;;;12.13;;
71665;SDS011;59503;53.486;10.196;2022-12-18T05:16:15;29.10;;;11.97;;
71665;SDS011;59503;53.486;10.196;2022-12-18T05:18:41;30.08;;;11.88;;
71665;SDS011;59503;53.486;10.196;2022-12-18T05:21:07;34.50;;;11.37;;
71665;SDS011;59503;53.486;10.196;2022-12-18T05:23:32;29.77;;;11.68;;
71665;SDS011;59503;53.486;10.196;2022-12-18T05:25:59;37.37;;;12.60;;
71665;SDS011;59503;53.486;10.196;2022-12-18T05:28:27;31.80;;;11.98;;
71665;SDS011;59503;53.486;10.196;2022-12-18T05:30:55;32.53;;;11.98;;
71665;SDS011;59503;53.486;10.196;2022-12-18T05:33:23;30.63;;;12.23;;
71665;SDS011;59503;53.486;10.196;2022-12-18T05:35:56;30.97;;;11.37;;
71665;SDS011;59503;53.486;10.196;2022-12-18T05:38:24;29.77;;;10.93;;
71665;SDS011;59503;53.486;10.196;2022-12-18T05:40:51;29.65;;;10.88;;
71665;SDS011;59503;53.486;10.196;2022-12-18T05:43:18;36.15;;;12.50;;
71665;SDS011;59503;53.486;10.196;2022-12-18T05:45:44;31.52;;;11.75;;
71665;SDS011;59503;53.486;10.196;2022-12-18T05:48:09;32.30;;;12.07;;
71665;SDS011;59503;53.486;10.196;2022-12-18T05:50:39;30.80;;;12.30;;
71665;SDS011;59503;53.486;10.196;2022-12-18T05:53:06;32.10;;;11.85;;
71665;SDS011;59503;53.486;10.196;2022-12-18T05:55:33;34.97;;;12.68;;
71665;SDS011;59503;53.486;10.196;2022-12-18T05:57:59;38.47;;;12.57;;
71665;SDS011;59503;53.486;10.196;2022-12-18T06:00:25;33.80;;;12.00;;
71665;SDS011;59503;53.486;10.196;2022-12-18T06:02:50;32.38;;;11.50;;
71665;SDS011;59503;53.486;10.196;2022-12-18T06:05:15;33.43;;;12.63;;
71665;SDS011;59503;53.486;10.196;2022-12-18T06:07:41;33.40;;;13.30;;
71665;SDS011;59503;53.486;10.196;2022-12-18T06:10:06;37.20;;;12.00;;
71665;SDS011;59503;53.486;10.196;2022-12-18T06:12:33;31.50;;;13.27;;
71665;SDS011;59503;53.486;10.196;2022-12-18T06:14:59;33.00;;;11.57;;
71665;SDS011;59503;53.486;10.196;2022-12-18T06:17:29;36.30;;;12.03;;
71665;SDS011;59503;53.486;10.196;2022-12-18T06:19:55;36.25;;;12.60;;
71665;SDS011;59503;53.486;10.196;2022-12-18T06:22:20;44.37;;;13.40;;
71665;SDS011;59503;53.486;10.196;2022-12-18T06:24:46;34.13;;;12.95;;
71665;SDS011;59503;53.486;10.196;2022-12-18T06:27:12;40.78;;;13.65;;
71665;SDS011;59503;53.486;10.196;2022-12-18T06:29:37;33.27;;;12.57;;
71665;SDS011;59503;53.486;10.196;2022-12-18T06:32:02;37.70;;;12.80;;
71665;SDS011;59503;53.486;10.196;2022-12-18T06:34:28;32.73;;;13.10;;
71665;SDS011;59503;53.486;10.196;2022-12-18T06:36:53;35.47;;;12.05;;
71665;SDS011;59503;53.486;10.196;2022-12-18T06:39:19;33.57;;;12.00;;
71665;SDS011;59503;53.486;10.196;2022-12-18T06:41:44;35.60;;;12.43;;
71665;SDS011;59503;53.486;10.196;2022-12-18T06:44:09;29.47;;;11.90;;
71665;SDS011;59503;53.486;10.196;2022-12-18T06:46:35;33.60;;;12.63;;
71665;SDS011;59503;53.486;10.196;2022-12-18T06:49:00;39.47;;;13.33;;
71665;SDS011;59503;53.486;10.196;2022-12-18T06:51:26;35.00;;;12.27;;
71665;SDS011;59503;53.486;10.196;2022-12-18T06:53:51;41.50;;;13.97;;
71665;SDS011;59503;53.486;10.196;2022-12-18T06:56:17;39.60;;;14.07;;
71665;SDS011;59503;53.486;10.196;2022-12-18T06:58:42;34.73;;;13.50;;
71665;SDS011;59503;53.486;10.196;2022-12-18T07:01:10;36.00;;;13.25;;
71665;SDS011;59503;53.486;10.196;2022-12-18T07:03:37;38.80;;;13.50;;
71665;SDS011;59503;53.486;10.196;2022-12-18T07:06:03;33.47;;;13.07;;
71665;SDS011;59503;53.486;10.196;2022-12-18T07:08:30;37.60;;;13.15;;
71665;SDS011;59503;53.486;10.196;2022-12-18T07:10:56;35.80;;;13.13;;
71665;SDS011;59503;53.486;10.196;2022-12-18T07:13:21;38.83;;;13.23;;
71665;SDS011;59503;53.486;10.196;2022-12-18T07:15:47;40.03;;;13.73;;
71665;SDS011;59503;53.486;10.196;2022-12-18T07:18:13;43.40;;;13.57;;
71665;SDS011;59503;53.486;10.196;2022-12-18T07:20:38;36.55;;;12.52;;
71665;SDS011;59503;53.486;10.196;2022-12-18T07:23:04;38.87;;;13.50;;
71665;SDS011;59503;53.486;10.196;2022-12-18T07:25:33;33.00;;;12.23;;
71665;SDS011;59503;53.486;10.196;2022-12-18T07:28:00;36.57;;;12.60;;
71665;SDS011;59503;53.486;10.196;2022-12-18T07:30:25;32.80;;;13.35;;
71665;SDS011;59503;53.486;10.196;2022-12-18T07:32:51;41.30;;;12.83;;
71665;SDS011;59503;53.486;10.196;2022-12-18T07:35:16;42.50;;;13.87;;
71665;SDS011;59503;53.486;10.196;2022-12-18T07:37:42;35.58;;;13.05;;
71665;SDS011;59503;53.486;10.196;2022-12-18T07:40:08;39.63;;;13.20;;
71665;SDS011;59503;53.486;10.196;2022-12-18T07:42:34;40.72;;;12.48;;
71665;SDS011;59503;53.486;10.196;2022-12-18T07:45:00;42.13;;;12.45;;
71665;SDS011;59503;53.486;10.196;2022-12-18T07:47:26;38.38;;;13.45;;
71665;SDS011;59503;53.486;10.196;2022-12-18T07:49:52;34.60;;;12.60;;
71665;SDS011;59503;53.486;10.196;2022-12-18T07:52:18;44.38;;;13.38;;
71665;SDS011;59503;53.486;10.196;2022-12-18T07:54:44;38.97;;;13.10;;
71665;SDS011;59503;53.486;10.196;2022-12-18T07:57:10;38.93;;;13.63;;
71665;SDS011;59503;53.486;10.196;2022-12-18T07:59:36;47.22;;;12.27;;
71665;SDS011;59503;53.486;10.196;2022-12-18T08:02:02;39.90;;;12.60;;
71665;SDS011;59503;53.486;10.196;2022-12-18T08:04:28;36.42;;;13.57;;
71665;SDS011;59503;53.486;10.196;2022-12-18T08:06:53;42.17;;;12.90;;
71665;SDS011;59503;53.486;10.196;2022-12-18T08:09:19;34.47;;;12.57;;
71665;SDS011;59503;53.486;10.196;2022-12-18T08:11:44;37.67;;;13.80;;
71665;SDS011;59503;53.486;10.196;2022-12-18T08:14:10;33.73;;;11.93;;
71665;SDS011;59503;53.486;10.196;2022-12-18T08:16:36;34.85;;;13.38;;
71665;SDS011;59503;53.486;10.196;2022-12-18T08:19:02;44.73;;;13.40;;
71665;SDS011;59503;53.486;10.196;2022-12-18T08:21:28;34.28;;;11.73;;
71665;SDS011;59503;53.486;10.196;2022-12-18T08:23:56;42.53;;;13.82;;
71665;SDS011;59503;53.486;10.196;2022-12-18T08:26:24;36.17;;;13.07;;
71665;SDS011;59503;53.486;10.196;2022-12-18T08:28:53;34.03;;;12.50;;
71665;SDS011;59503;53.486;10.196;2022-12-18T08:31:20;36.13;;;12.27;;
71665;SDS011;59503;53.486;10.196;2022-12-18T08:33:48;36.45;;;12.85;;
71665;SDS011;59503;53.486;10.196;2022-12-18T08:36:14;36.67;;;13.50;;
71665;SDS011;59503;53.486;10.196;2022-12-18T08:38:40;35.33;;;12.40;;
71665;SDS011;59503;53.486;10.196;2022-12-18T08:41:07;32.67;;;11.20;;
71665;SDS011;59503;53.486;10.196;2022-12-18T08:43:34;35.63;;;12.73;;
71665;SDS011;59503;53.486;10.196;2022-12-18T08:46:19;33.57;;;12.73;;
71665;SDS011;59503;53.486;10.196;2022-12-18T08:48:45;35.28;;;11.63;;
71665;SDS011;59503;53.486;10.196;2022-12-18T08:51:11;31.50;;;11.63;;
71665;SDS011;59503;53.486;10.196;2022-12-18T08:53:37;40.40;;;12.38;;
71665;SDS011;59503;53.486;10.196;2022-12-18T08:56:04;32.90;;;12.33;;
71665;SDS011;59503;53.486;10.196;2022-12-18T08:58:30;36.08;;;12.93;;
71665;SDS011;59503;53.486;10.196;2022-12-18T09:01:03;36.60;;;12.63;;
71665;SDS011;59503;53.486;10.196;2022-12-18T09:03:30;34.57;;;12.47;;
71665;SDS011;59503;53.486;10.196;2022-12-18T09:05:55;38.03;;;13.85;;
71665;SDS011;59503;53.486;10.196;2022-12-18T09:08:21;34.77;;;12.20;;
71665;SDS011;59503;53.486;10.196;2022-12-18T09:10:47;34.78;;;12.52;;
71665;SDS011;59503;53.486;10.196;2022-12-18T09:13:14;36.28;;;11.98;;
71665;SDS011;59503;53.486;10.196;2022-12-18T09:15:44;31.83;;;12.60;;
71665;SDS011;59503;53.486;10.196;2022-12-18T09:18:11;32.92;;;12.45;;
71665;SDS011;59503;53.486;10.196;2022-12-18T09:20:38;33.47;;;12.20;;
71665;SDS011;59503;53.486;10.196;2022-12-18T09:23:04;35.10;;;12.93;;
71665;SDS011;59503;53.486;10.196;2022-12-18T09:25:30;29.85;;;12.15;;
71665;SDS011;59503;53.486;10.196;2022-12-18T09:28:17;32.80;;;10.80;;
71665;SDS011;59503;53.486;10.196;2022-12-18T09:30:45;30.52;;;10.05;;
71665;SDS011;59503;53.486;10.196;2022-12-18T09:33:12;36.28;;;12.30;;
71665;SDS011;59503;53.486;10.196;2022-12-18T09:35:39;28.97;;;11.10;;
71665;SDS011;59503;53.486;10.196;2022-12-18T09:38:06;36.42;;;11.93;;
71665;SDS011;59503;53.486;10.196;2022-12-18T09:40:39;34.58;;;11.70;;
71665;SDS011;59503;53.486;10.196;2022-12-18T09:43:12;33.67;;;11.85;;
71665;SDS011;59503;53.486;10.196;2022-12-18T09:45:46;34.95;;;11.93;;
71665;SDS011;59503;53.486;10.196;2022-12-18T09:48:31;29.00;;;11.70;;
71665;SDS011;59503;53.486;10.196;2022-12-18T09:51:03;34.58;;;11.50;;
71665;SDS011;59503;53.486;10.196;2022-12-18T09:53:35;36.47;;;11.65;;
71665;SDS011;59503;53.486;10.196;2022-12-18T09:56:04;32.90;;;12.45;;
71665;SDS011;59503;53.486;10.196;2022-12-18T09:58:31;34.88;;;11.82;;
71665;SDS011;59503;53.486;10.196;2022-12-18T10:01:14;32.90;;;12.10;;
71665;SDS011;59503;53.486;10.196;2022-12-18T10:03:43;30.17;;;11.05;;
71665;SDS011;59503;53.486;10.196;2022-12-18T10:15:07;35.50;;;11.77;;
71665;SDS011;59503;53.486;10.196;2022-12-18T10:20:13;29.83;;;11.45;;
71665;SDS011;59503;53.486;10.196;2022-12-18T10:25:28;29.20;;;10.90;;
71665;SDS011;59503;53.486;10.196;2022-12-18T10:28:10;31.17;;;11.55;;
71665;SDS011;59503;53.486;10.196;2022-12-18T10:30:38;32.33;;;12.15;;
71665;SDS011;59503;53.486;10.196;2022-12-18T10:33:05;38.13;;;12.52;;
71665;SDS011;59503;53.486;10.196;2022-12-18T10:35:31;34.83;;;12.45;;
71665;SDS011;59503;53.486;10.196;2022-12-18T10:43:20;27.85;;;11.68;;
71665;SDS011;59503;53.486;10.196;2022-12-18T10:45:58;31.42;;;11.25;;
71665;SDS011;59503;53.486;10.196;2022-12-18T10:48:24;36.53;;;12.52;;
71665;SDS011;59503;53.486;10.196;2022-12-18T10:50:50;30.13;;;11.63;;
71665;SDS011;59503;53.486;10.196;2022-12-18T10:53:21;34.70;;;11.57;;
71665;SDS011;59503;53.486;10.196;2022-12-18T10:55:50;37.53;;;12.52;;
71665;SDS011;59503;53.486;10.196;2022-12-18T11:03:42;41.90;;;13.13;;
71665;SDS011;59503;53.486;10.196;2022-12-18T11:08:39;34.63;;;11.93;;
71665;SDS011;59503;53.486;10.196;2022-12-18T11:11:21;34.83;;;12.53;;
71665;SDS011;59503;53.486;10.196;2022-12-18T11:14:17;32.40;;;12.68;;
71665;SDS011;59503;53.486;10.196;2022-12-18T11:16:44;32.10;;;11.30;;
71665;SDS011;59503;53.486;10.196;2022-12-18T11:21:40;34.92;;;13.10;;
71665;SDS011;59503;53.486;10.196;2022-12-18T11:24:07;42.53;;;13.20;;
71665;SDS011;59503;53.486;10.196;2022-12-18T11:26:45;34.28;;;12.75;;
71665;SDS011;59503;53.486;10.196;2022-12-18T11:29:15;35.43;;;12.87;;
71665;SDS011;59503;53.486;10.196;2022-12-18T11:31:42;36.05;;;12.40;;
71665;SDS011;59503;53.486;10.196;2022-12-18T11:34:16;32.92;;;12.68;;
71665;SDS011;59503;53.486;10.196;2022-12-18T11:36:51;28.92;;;11.40;;
71665;SDS011;59503;53.486;10.196;2022-12-18T11:42:04;31.60;;;11.65;;
71665;SDS011;59503;53.486;10.196;2022-12-18T11:49:51;32.15;;;11.52;;
71665;SDS011;59503;53.486;10.196;2022-12-18T11:52:24;35.67;;;11.97;;
71665;SDS011;59503;53.486;10.196;2022-12-18T11:54:57;28.30;;;10.63;;
71665;SDS011;59503;53.486;10.196;2022-12-18T12:00:16;43.40;;;13.68;;
71665;SDS011;59503;53.486;10.196;2022-12-18T12:08:11;35.83;;;11.45;;
71665;SDS011;59503;53.486;10.196;2022-12-18T12:11:07;29.15;;;10.82;;
71665;SDS011;59503;53.486;10.196;2022-12-18T12:19:13;35.10;;;10.57;;
71665;SDS011;59503;53.486;10.196;2022-12-18T12:21:59;29.67;;;11.38;;
71665;SDS011;59503;53.486;10.196;2022-12-18T12:24:57;31.38;;;11.48;;
71665;SDS011;59503;53.486;10.196;2022-12-18T12:30:21;32.00;;;10.73;;
71665;SDS011;59503;53.486;10.196;2022-12-18T12:36:10;26.80;;;10.35;;
71665;SDS011;59503;53.486;10.196;2022-12-18T12:38:55;32.92;;;10.38;;
71665;SDS011;59503;53.486;10.196;2022-12-18T12:41:25;33.10;;;10.82;;
71665;SDS011;59503;53.486;10.196;2022-12-18T12:44:24;28.92;;;10.65;;
71665;SDS011;59503;53.486;10.196;2022-12-18T12:46:55;35.07;;;10.87;;
71665;SDS011;59503;53.486;10.196;2022-12-18T12:49:26;28.02;;;9.20;;
71665;SDS011;59503;53.486;10.196;2022-12-18T12:52:04;28.77;;;10.50;;
71665;SDS011;59503;53.486;10.196;2022-12-18T12:54:36;36.22;;;10.80;;
71665;SDS011;59503;53.486;10.196;2022-12-18T12:57:09;30.33;;;10.53;;
71665;SDS011;59503;53.486;10.196;2022-12-18T13:02:51;28.85;;;9.52;;
71665;SDS011;59503;53.486;10.196;2022-12-18T13:13:08;24.05;;;9.10;;
71665;SDS011;59503;53.486;10.196;2022-12-18T13:18:04;28.55;;;8.88;;
71665;SDS011;59503;53.486;10.196;2022-12-18T13:20:46;32.10;;;10.18;;
71665;SDS011;59503;53.486;10.196;2022-12-18T13:25:52;32.15;;;10.30;;
71665;SDS011;59503;53.486;10.196;2022-12-18T13:31:57;26.33;;;8.93;;
71665;SDS011;59503;53.486;10.196;2022-12-18T13:34:13;28.00;;;9.00;;
71665;SDS011;59503;53.486;10.196;2022-12-18T13:36:50;22.07;;;8.20;;
71665;SDS011;59503;53.486;10.196;2022-12-18T13:41:48;28.45;;;9.85;;
71665;SDS011;59503;53.486;10.196;2022-12-18T13:44:54;25.95;;;8.60;;
71665;SDS011;59503;53.486;10.196;2022-12-18T13:47:41;31.07;;;9.87;;
71665;SDS011;59503;53.486;10.196;2022-12-18T13:50:20;36.42;;;10.93;;
71665;SDS011;59503;53.486;10.196;2022-12-18T13:52:49;30.30;;;9.52;;
71665;SDS011;59503;53.486;10.196;2022-12-18T13:55:17;32.30;;;10.40;;
71665;SDS011;59503;53.486;10.196;2022-12-18T13:57:44;28.88;;;9.32;;
71665;SDS011;59503;53.486;10.196;2022-12-18T14:02:47;29.87;;;9.53;;
71665;SDS011;59503;53.486;10.196;2022-12-18T14:05:29;32.85;;;10.50;;
71665;SDS011;59503;53.486;10.196;2022-12-18T14:08:00;35.30;;;10.93;;
71665;SDS011;59503;53.486;10.196;2022-12-18T14:10:28;38.50;;;10.68;;
71665;SDS011;59503;53.486;10.196;2022-12-18T14:12:54;31.48;;;9.80;;
71665;SDS011;59503;53.486;10.196;2022-12-18T14:17:52;35.45;;;11.10;;
71665;SDS011;59503;53.486;10.196;2022-12-18T14:20:18;35.80;;;10.88;;
71665;SDS011;59503;53.486;10.196;2022-12-18T14:22:45;46.80;;;12.68;;
71665;SDS011;59503;53.486;10.196;2022-12-18T14:27:43;31.77;;;11.00;;
71665;SDS011;59503;53.486;10.196;2022-12-18T14:30:45;37.90;;;12.05;;
71665;SDS011;59503;53.486;10.196;2022-12-18T14:36:00;36.90;;;11.20;;
71665;SDS011;59503;53.486;10.196;2022-12-18T14:38:31;33.72;;;10.10;;
71665;SDS011;59503;53.486;10.196;2022-12-18T14:41:00;38.80;;;11.63;;
71665;SDS011;59503;53.486;10.196;2022-12-18T14:43:29;44.03;;;12.70;;
71665;SDS011;59503;53.486;10.196;2022-12-18T14:45:58;41.15;;;11.90;;
71665;SDS011;59503;53.486;10.196;2022-12-18T14:53:45;43.23;;;12.77;;
71665;SDS011;59503;53.486;10.196;2022-12-18T14:58:46;39.90;;;11.57;;
71665;SDS011;59503;53.486;10.196;2022-12-18T15:01:24;45.90;;;14.07;;
71665;SDS011;59503;53.486;10.196;2022-12-18T15:03:55;36.95;;;12.02;;
71665;SDS011;59503;53.486;10.196;2022-12-18T15:06:34;42.80;;;13.20;;
71665;SDS011;59503;53.486;10.196;2022-12-18T15:09:18;39.67;;;12.60;;
71665;SDS011;59503;53.486;10.196;2022-12-18T15:11:54;40.28;;;11.68;;
71665;SDS011;59503;53.486;10.196;2022-12-18T15:14:23;40.75;;;11.65;;
71665;SDS011;59503;53.486;10.196;2022-12-18T15:16:55;42.05;;;13.27;;
71665;SDS011;59503;53.486;10.196;2022-12-18T15:19:22;42.00;;;11.77;;
71665;SDS011;59503;53.486;10.196;2022-12-18T15:21:58;37.53;;;11.65;;
71665;SDS011;59503;53.486;10.196;2022-12-18T15:24:26;43.03;;;12.10;;
71665;SDS011;59503;53.486;10.196;2022-12-18T15:26:55;51.53;;;18.47;;
71665;SDS011;59503;53.486;10.196;2022-12-18T15:29:21;40.60;;;12.25;;
71665;SDS011;59503;53.486;10.196;2022-12-18T15:32:04;38.05;;;12.95;;
71665;SDS011;59503;53.486;10.196;2022-12-18T15:34:31;41.95;;;12.45;;
71665;SDS011;59503;53.486;10.196;2022-12-18T15:36:59;44.05;;;12.57;;
71665;SDS011;59503;53.486;10.196;2022-12-18T15:39:25;37.77;;;12.37;;
71665;SDS011;59503;53.486;10.196;2022-12-18T15:41:50;44.80;;;12.73;;
71665;SDS011;59503;53.486;10.196;2022-12-18T15:44:34;50.05;;;12.77;;
71665;SDS011;59503;53.486;10.196;2022-12-18T15:47:00;40.73;;;12.57;;
71665;SDS011;59503;53.486;10.196;2022-12-18T15:49:25;37.50;;;11.20;;
71665;SDS011;59503;53.486;10.196;2022-12-18T15:51:52;40.15;;;11.60;;
71665;SDS011;59503;53.486;10.196;2022-12-18T15:54:19;39.93;;;11.87;;
71665;SDS011;59503;53.486;10.196;2022-12-18T15:57:04;33.95;;;11.32;;
71665;SDS011;59503;53.486;10.196;2022-12-18T15:59:49;45.10;;;11.38;;
71665;SDS011;59503;53.486;10.196;2022-12-18T16:02:18;36.88;;;11.65;;
71665;SDS011;59503;53.486;10.196;2022-12-18T16:04:44;40.78;;;11.57;;
71665;SDS011;59503;53.486;10.196;2022-12-18T16:07:13;42.70;;;11.77;;
71665;SDS011;59503;53.486;10.196;2022-12-18T16:09:38;39.72;;;12.45;;
71665;SDS011;59503;53.486;10.196;2022-12-18T16:12:15;41.80;;;12.27;;
71665;SDS011;59503;53.486;10.196;2022-12-18T16:14:43;41.15;;;12.02;;
71665;SDS011;59503;53.486;10.196;2022-12-18T16:17:09;36.47;;;12.05;;
71665;SDS011;59503;53.486;10.196;2022-12-18T16:19:36;36.60;;;11.80;;
71665;SDS011;59503;53.486;10.196;2022-12-18T16:22:01;34.13;;;11.40;;
71665;SDS011;59503;53.486;10.196;2022-12-18T16:24:31;47.13;;;12.50;;
71665;SDS011;59503;53.486;10.196;2022-12-18T16:26:58;42.58;;;14.00;;
71665;SDS011;59503;53.486;10.196;2022-12-18T16:29:25;37.23;;;11.10;;